Time;durP1;ratioP1;P1;durP2;ratioP2;P2;SDS_P1;SDS_P2;PMS_P1;PMS_P2;Temp;Humidity;BMP_temperature;BMP_pressure;BME280_temperature;BME280_humidity;BME280_pressure;Samples;Min_cycle;Max_cycle;Signal;HPM_P1;HPM_P2
2021/01/15 00:00:10;;;;;;;0.4;0.4;;;;;;;;;;;;;
2021/01/15 00:02:35;;;;;;;0.9;0.6;;;;;;;;;;;;;
2021/01/15 00:05:00;;;;;;;1.7;0.8;;;;;;;;;;;;;
2021/01/15 00:07:26;;;;;;;0.5;0.5;;;;;;;;;;;;;
2021/01/15 00:09:51;;;;;;;0.4;0.4;;;;;;;;;;;;;
2021/01/15 00:12:16;;;;;;;0.8;0.8;;;;;;;;;;;;;
2021/01/15 00:14:41;;;;;;;0.8;0.5;;;;;;;;;;;;;
2021/01/15 00:17:06;;;;;;;0.3;0.3;;;;;;;;;;;;;
2021/01/15 00:19:31;;;;;;;0.8;0.7;;;;;;;;;;;;;
2021/01/15 00:21:57;;;;;;;0.6;0.5;;;;;;;;;;;;;
2021/01/15 00:24:22;;;;;;;0.4;0.4;;;;;;;;;;;;;
2021/01/15 00:26:47;;;;;;;0.5;0.5;;;;;;;;;;;;;
2021/01/15 00:29:12;;;;;;;0.4;0.4;;;;;;;;;;;;;
2021/01/15 00:31:37;;;;;;;0.5;0.5;;;;;;;;;;;;;
2021/01/15 00:34:02;;;;;;;0.8;0.3;;;;;;;;;;;;;
2021/01/15 00:36:28;;;;;;;1;0.4;;;;;;;;;;;;;
2021/01/15 00:38:54;;;;;;;3.5;0.5;;;;;;;;;;;;;
2021/01/15 00:41:19;;;;;;;0.5;0.5;;;;;;;;;;;;;
2021/01/15 00:43:46;;;;;;;0.3;0.3;;;;;;;;;;;;;
2021/01/15 00:46:12;;;;;;;0.2;0.2;;;;;;;;;;;;;
2021/01/15 00:48:37;;;;;;;0.6;0.4;;;;;;;;;;;;;
2021/01/15 00:51:02;;;;;;;1;0.5;;;;;;;;;;;;;
2021/01/15 00:53:27;;;;;;;0.6;0.5;;;;;;;;;;;;;
2021/01/15 00:55:52;;;;;;;0.4;0.4;;;;;;;;;;;;;
2021/01/15 00:58:19;;;;;;;0.9;0.9;;;;;;;;;;;;;
2021/01/15 01:00:44;;;;;;;0.6;0.6;;;;;;;;;;;;;
2021/01/15 01:03:12;;;;;;;0.5;0.5;;;;;;;;;;;;;
2021/01/15 01:05:37;;;;;;;0.4;0.4;;;;;;;;;;;;;
2021/01/15 01:08:02;;;;;;;0.6;0.6;;;;;;;;;;;;;
2021/01/15 01:10:27;;;;;;;1.9;0.7;;;;;;;;;;;;;
2021/01/15 01:12:52;;;;;;;0.3;0.3;;;;;;;;;;;;;
2021/01/15 01:15:18;;;;;;;1.2;0.6;;;;;;;;;;;;;
2021/01/15 01:17:44;;;;;;;0.3;0.3;;;;;;;;;;;;;
2021/01/15 01:20:10;;;;;;;0.4;0.4;;;;;;;;;;;;;
2021/01/15 01:22:35;;;;;;;0.3;0.3;;;;;;;;;;;;;
2021/01/15 01:25:00;;;;;;;0.5;0.5;;;;;;;;;;;;;
2021/01/15 01:27:26;;;;;;;0.3;0.3;;;;;;;;;;;;;
2021/01/15 01:29:51;;;;;;;0.4;0.4;;;;;;;;;;;;;
2021/01/15 01:32:18;;;;;;;0.2;0.2;;;;;;;;;;;;;
2021/01/15 01:34:43;;;;;;;0.2;0.2;;;;;;;;;;;;;
2021/01/15 01:37:09;;;;;;;0.3;0.3;;;;;;;;;;;;;
2021/01/15 01:39:34;;;;;;;0.4;0.4;;;;;;;;;;;;;
2021/01/15 01:42:00;;;;;;;0.5;0.4;;;;;;;;;;;;;
2021/01/15 01:44:25;;;;;;;0.3;0.3;;;;;;;;;;;;;
2021/01/15 01:46:52;;;;;;;0.4;0.4;;;;;;;;;;;;;
2021/01/15 01:49:17;;;;;;;1;0.4;;;;;;;;;;;;;
2021/01/15 01:51:45;;;;;;;0.3;0.3;;;;;;;;;;;;;
2021/01/15 01:54:09;;;;;;;0.3;0.3;;;;;;;;;;;;;
2021/01/15 01:56:34;;;;;;;0.5;0.4;;;;;;;;;;;;;
2021/01/15 01:58:59;;;;;;;0.4;0.4;;;;;;;;;;;;;
2021/01/15 02:01:26;;;;;;;0.6;0.3;;;;;;;;;;;;;
2021/01/15 02:03:51;;;;;;;0.2;0.2;;;;;;;;;;;;;
2021/01/15 02:06:16;;;;;;;0.4;0.4;;;;;;;;;;;;;
2021/01/15 02:08:42;;;;;;;0.2;0.2;;;;;;;;;;;;;
2021/01/15 02:11:08;;;;;;;0.5;0.5;;;;;;;;;;;;;
2021/01/15 02:13:33;;;;;;;0.3;0.3;;;;;;;;;;;;;
2021/01/15 02:15:58;;;;;;;0.4;0.4;;;;;;;;;;;;;
2021/01/15 02:18:23;;;;;;;0.3;0.3;;;;;;;;;;;;;
2021/01/15 02:20:50;;;;;;;0.5;0.4;;;;;;;;;;;;;
2021/01/15 02:23:15;;;;;;;0.6;0.4;;;;;;;;;;;;;
2021/01/15 02:25:40;;;;;;;0.3;0.3;;;;;;;;;;;;;
2021/01/15 02:28:06;;;;;;;0.5;0.4;;;;;;;;;;;;;
2021/01/15 02:30:31;;;;;;;0.2;0.2;;;;;;;;;;;;;
2021/01/15 02:32:56;;;;;;;0.4;0.4;;;;;;;;;;;;;
2021/01/15 02:35:21;;;;;;;0.2;0.2;;;;;;;;;;;;;
2021/01/15 02:37:46;;;;;;;0.3;0.3;;;;;;;;;;;;;
2021/01/15 02:40:14;;;;;;;1.1;0.7;;;;;;;;;;;;;
2021/01/15 02:42:39;;;;;;;0.5;0.5;;;;;;;;;;;;;
2021/01/15 02:45:04;;;;;;;0.3;0.3;;;;;;;;;;;;;
2021/01/15 02:47:29;;;;;;;0.3;0.3;;;;;;;;;;;;;
2021/01/15 02:49:54;;;;;;;1.8;0.4;;;;;;;;;;;;;
2021/01/15 02:52:20;;;;;;;0.1;0.1;;;;;;;;;;;;;
2021/01/15 02:54:45;;;;;;;1;0.5;;;;;;;;;;;;;
2021/01/15 02:57:11;;;;;;;0.5;0.5;;;;;;;;;;;;;
2021/01/15 02:59:36;;;;;;;0.5;0.5;;;;;;;;;;;;;
2021/01/15 03:02:02;;;;;;;0.4;0.4;;;;;;;;;;;;;
2021/01/15 03:04:27;;;;;;;0.9;0.8;;;;;;;;;;;;;
2021/01/15 03:06:52;;;;;;;0.4;0.4;;;;;;;;;;;;;
2021/01/15 03:09:17;;;;;;;0.3;0.3;;;;;;;;;;;;;
2021/01/15 03:11:42;;;;;;;0.9;0.6;;;;;;;;;;;;;
2021/01/15 03:14:08;;;;;;;0.2;0.2;;;;;;;;;;;;;
2021/01/15 03:16:33;;;;;;;0.4;0.4;;;;;;;;;;;;;
2021/01/15 03:18:58;;;;;;;0.3;0.3;;;;;;;;;;;;;
2021/01/15 03:21:23;;;;;;;0.5;0.5;;;;;;;;;;;;;
2021/01/15 03:23:50;;;;;;;0.2;0.2;;;;;;;;;;;;;
2021/01/15 03:26:15;;;;;;;0.3;0.3;;;;;;;;;;;;;
2021/01/15 03:28:41;;;;;;;0.3;0.3;;;;;;;;;;;;;
2021/01/15 03:31:06;;;;;;;0.2;0.2;;;;;;;;;;;;;
2021/01/15 03:33:31;;;;;;;0.3;0.3;;;;;;;;;;;;;
2021/01/15 03:35:56;;;;;;;0.3;0.3;;;;;;;;;;;;;
2021/01/15 03:38:22;;;;;;;1.6;1.2;;;;;;;;;;;;;
2021/01/15 03:40:47;;;;;;;4.1;1.1;;;;;;;;;;;;;
2021/01/15 03:43:12;;;;;;;0.8;0.8;;;;;;;;;;;;;
2021/01/15 03:45:37;;;;;;;1.5;0.6;;;;;;;;;;;;;
2021/01/15 03:48:02;;;;;;;1.5;1;;;;;;;;;;;;;
2021/01/15 03:50:28;;;;;;;1.5;0.7;;;;;;;;;;;;;
2021/01/15 03:52:53;;;;;;;0.5;0.5;;;;;;;;;;;;;
2021/01/15 03:55:18;;;;;;;0.6;0.4;;;;;;;;;;;;;
2021/01/15 03:57:43;;;;;;;0.6;0.6;;;;;;;;;;;;;
2021/01/15 04:02:30;;;;;;;0.4;0.4;;;;;;;-0.4;83.7998;935.2108;;;;
2021/01/15 04:04:55;;;;;;;0.7;0.6;;;;;;;-0.33;83.9707;935.2408;;;;
2021/01/15 04:07:20;;;;;;;3;2.1;;;;;;;;;;;;;
2021/01/15 04:09:45;;;;;;;3.7;2.5;;;;;;;;;;;;;
2021/01/15 04:12:11;;;;;;;2.3;2;;;;;;;;;;;;;
2021/01/15 04:14:36;;;;;;;3.9;2.5;;;;;;;;;;;;;
2021/01/15 04:17:01;;;;;;;2.7;2.2;;;;;;;;;;;;;
2021/01/15 04:19:26;;;;;;;5.2;2.6;;;;;;;;;;;;;
2021/01/15 04:21:51;;;;;;;3.5;2.8;;;;;;;;;;;;;
2021/01/15 04:24:17;;;;;;;5.3;2;;;;;;;;;;;;;
2021/01/15 04:26:42;;;;;;;5.6;2.7;;;;;;;;;;;;;
2021/01/15 04:29:08;;;;;;;7.6;3.1;;;;;;;;;;;;;
2021/01/15 04:31:33;;;;;;;5.1;3.4;;;;;;;;;;;;;
2021/01/15 04:33:59;;;;;;;4.6;2.5;;;;;;;;;;;;;
2021/01/15 04:36:25;;;;;;;3.4;2.5;;;;;;;;;;;;;
2021/01/15 04:38:50;;;;;;;5.7;2.9;;;;;;;;;;;;;
2021/01/15 04:41:15;;;;;;;3.6;2.5;;;;;;;;;;;;;
2021/01/15 04:43:41;;;;;;;3.2;2.4;;;;;;;;;;;;;
2021/01/15 04:46:06;;;;;;;3.2;2.2;;;;;;;;;;;;;
2021/01/15 04:48:31;;;;;;;3;2.1;;;;;;;;;;;;;
2021/01/15 04:50:57;;;;;;;2.8;2.5;;;;;;;;;;;;;
2021/01/15 04:53:22;;;;;;;3.6;2.7;;;;;;;;;;;;;
2021/01/15 04:55:51;;;;;;;2.8;2;;;;;;;;;;;;;
2021/01/15 04:58:16;;;;;;;3.3;2.1;;;;;;;;;;;;;
2021/01/15 05:00:41;;;;;;;6;2.6;;;;;;;;;;;;;
2021/01/15 05:03:06;;;;;;;2.9;2;;;;;;;;;;;;;
2021/01/15 05:05:31;;;;;;;4.3;2.7;;;;;;;;;;;;;
2021/01/15 05:07:56;;;;;;;4.6;2.6;;;;;;;;;;;;;
2021/01/15 05:10:23;;;;;;;4.2;2.4;;;;;;;;;;;;;
2021/01/15 05:12:48;;;;;;;3.5;2.2;;;;;;;;;;;;;
2021/01/15 05:15:13;;;;;;;2.6;2.3;;;;;;;;;;;;;
2021/01/15 05:17:38;;;;;;;3.8;2.6;;;;;;;;;;;;;
2021/01/15 05:20:04;;;;;;;2.2;1.8;;;;;;;;;;;;;
2021/01/15 05:22:30;;;;;;;3.4;1.8;;;;;;;;;;;;;
2021/01/15 05:24:55;;;;;;;2.9;2.1;;;;;;;;;;;;;
2021/01/15 05:29:45;;;;;;;3.1;2.4;;;;;;;;;;;;;
2021/01/15 05:32:11;;;;;;;3.7;2.3;;;;;;;;;;;;;
2021/01/15 05:34:36;;;;;;;4;2.5;;;;;;;;;;;;;
2021/01/15 05:37:01;;;;;;;4.1;2.5;;;;;;;;;;;;;
2021/01/15 05:39:27;;;;;;;5.1;2.8;;;;;;;;;;;;;
2021/01/15 05:41:51;;;;;;;3.8;2.2;;;;;;;;;;;;;
2021/01/15 05:44:16;;;;;;;4.8;2.7;;;;;;;;;;;;;
2021/01/15 05:46:42;;;;;;;3.4;2.5;;;;;;;;;;;;;
2021/01/15 05:49:07;;;;;;;4.3;2.6;;;;;;;;;;;;;
2021/01/15 05:51:33;;;;;;;4;2.2;;;;;;;;;;;;;
2021/01/15 05:53:58;;;;;;;2.8;2;;;;;;;;;;;;;
2021/01/15 05:56:23;;;;;;;4.9;2.2;;;;;;;;;;;;;
2021/01/15 05:58:48;;;;;;;2.5;2.1;;;;;;;;;;;;;
2021/01/15 06:01:14;;;;;;;4.3;1.9;;;;;;;;;;;;;
2021/01/15 06:03:39;;;;;;;3.3;2;;;;;;;;;;;;;
2021/01/15 06:06:04;;;;;;;4;2.3;;;;;;;;;;;;;
2021/01/15 06:08:30;;;;;;;4.8;2.3;;;;;;;;;;;;;
2021/01/15 06:10:56;;;;;;;1.7;1.5;;;;;;;;;;;;;
2021/01/15 06:13:21;;;;;;;2;1.8;;;;;;;;;;;;;
2021/01/15 06:15:47;;;;;;;3.2;2.4;;;;;;;;;;;;;
2021/01/15 06:18:12;;;;;;;1.9;1.6;;;;;;;;;;;;;
2021/01/15 06:20:39;;;;;;;4.9;1.6;;;;;;;;;;;;;
2021/01/15 06:23:04;;;;;;;4.2;2.6;;;;;;;;;;;;;
2021/01/15 06:25:29;;;;;;;2.7;1.5;;;;;;;;;;;;;
2021/01/15 06:27:56;;;;;;;5.2;2.6;;;;;;;;;;;;;
2021/01/15 06:30:19;;;;;;;4;1.9;;;;;;;;;;;;;
2021/01/15 06:32:44;;;;;;;3.2;2;;;;;;;;;;;;;
2021/01/15 06:35:10;;;;;;;1.4;1.3;;;;;;;;;;;;;
2021/01/15 06:37:35;;;;;;;2.8;1.9;;;;;;;;;;;;;
2021/01/15 06:40:00;;;;;;;2.1;1.6;;;;;;;;;;;;;
2021/01/15 06:42:25;;;;;;;8.2;2.1;;;;;;;;;;;;;
2021/01/15 06:44:50;;;;;;;1.5;1.4;;;;;;;;;;;;;
2021/01/15 06:47:15;;;;;;;3.5;2;;;;;;;;;;;;;
2021/01/15 06:49:41;;;;;;;2.5;1.9;;;;;;;;;;;;;
2021/01/15 06:52:07;;;;;;;1.8;1.6;;;;;;;;;;;;;
2021/01/15 06:54:32;;;;;;;3.1;1.5;;;;;;;;;;;;;
2021/01/15 06:56:58;;;;;;;2.1;1.5;;;;;;;;;;;;;
2021/01/15 06:59:23;;;;;;;2.6;1.9;;;;;;;;;;;;;
2021/01/15 07:01:48;;;;;;;2.6;2;;;;;;;;;;;;;
2021/01/15 07:04:13;;;;;;;3;2.3;;;;;;;;;;;;;
2021/01/15 07:06:39;;;;;;;3.2;1.9;;;;;;;;;;;;;
2021/01/15 07:09:04;;;;;;;4.1;2;;;;;;;;;;;;;
2021/01/15 07:11:30;;;;;;;2.3;1.9;;;;;;;;;;;;;
2021/01/15 07:13:55;;;;;;;2.7;1.7;;;;;;;;;;;;;
2021/01/15 07:16:20;;;;;;;1.9;1.4;;;;;;;;;;;;;
2021/01/15 07:18:46;;;;;;;2.2;1.6;;;;;;;;;;;;;
2021/01/15 07:21:11;;;;;;;1.9;1.4;;;;;;;;;;;;;
2021/01/15 07:23:36;;;;;;;4.4;1.7;;;;;;;;;;;;;
2021/01/15 07:26:01;;;;;;;1.7;1.3;;;;;;;;;;;;;
2021/01/15 07:28:27;;;;;;;3.9;2.3;;;;;;;;;;;;;
2021/01/15 07:30:52;;;;;;;1.5;1.3;;;;;;;;;;;;;
2021/01/15 07:33:18;;;;;;;2;1.4;;;;;;;;;;;;;
2021/01/15 07:35:43;;;;;;;2.5;1.6;;;;;;;;;;;;;
2021/01/15 07:38:09;;;;;;;2.8;2;;;;;;;;;;;;;
2021/01/15 07:40:34;;;;;;;2.3;1.7;;;;;;;;;;;;;
2021/01/15 07:42:59;;;;;;;2.3;1.8;;;;;;;;;;;;;
2021/01/15 07:45:25;;;;;;;2.3;2;;;;;;;;;;;;;
2021/01/15 07:47:49;;;;;;;6.9;2.3;;;;;;;;;;;;;
2021/01/15 07:50:15;;;;;;;4.1;1.9;;;;;;;;;;;;;
2021/01/15 07:52:40;;;;;;;1.7;1.5;;;;;;;;;;;;;
2021/01/15 07:55:05;;;;;;;1.6;1.5;;;;;;;;;;;;;
2021/01/15 07:57:30;;;;;;;2.2;2;;;;;;;;;;;;;
2021/01/15 07:59:55;;;;;;;3.4;2.3;;;;;;;;;;;;;
2021/01/15 08:02:20;;;;;;;2.6;1.7;;;;;;;;;;;;;
2021/01/15 08:04:45;;;;;;;1.6;1.3;;;;;;;;;;;;;
2021/01/15 08:07:10;;;;;;;4;2;;;;;;;;;;;;;
2021/01/15 08:09:36;;;;;;;3.2;2.2;;;;;;;;;;;;;
2021/01/15 08:12:02;;;;;;;1.9;1.5;;;;;;;;;;;;;
2021/01/15 08:14:28;;;;;;;3.4;1.8;;;;;;;;;;;;;
2021/01/15 08:16:53;;;;;;;1.6;1.5;;;;;;;;;;;;;
2021/01/15 08:19:19;;;;;;;2.5;2.1;;;;;;;;;;;;;
2021/01/15 08:21:44;;;;;;;3.8;2.3;;;;;;;;;;;;;
2021/01/15 08:24:10;;;;;;;2.2;2;;;;;;;;;;;;;
2021/01/15 08:26:35;;;;;;;2.6;2;;;;;;;;;;;;;
2021/01/15 08:29:01;;;;;;;2.7;2.1;;;;;;;;;;;;;
2021/01/15 08:31:26;;;;;;;1.8;1.6;;;;;;;;;;;;;
2021/01/15 08:33:51;;;;;;;3.2;2;;;;;;;;;;;;;
2021/01/15 08:36:18;;;;;;;3.1;2.3;;;;;;;;;;;;;
2021/01/15 08:38:42;;;;;;;5.4;1.8;;;;;;;;;;;;;
2021/01/15 08:41:08;;;;;;;2.7;1.8;;;;;;;;;;;;;
2021/01/15 08:43:33;;;;;;;2.9;2;;;;;;;;;;;;;
2021/01/15 08:46:00;;;;;;;4;1.8;;;;;;;;;;;;;
2021/01/15 08:48:24;;;;;;;2.4;1.7;;;;;;;;;;;;;
2021/01/15 08:50:53;;;;;;;2.9;2.1;;;;;;;;;;;;;
2021/01/15 08:53:15;;;;;;;4.8;2.3;;;;;;;;;;;;;
2021/01/15 08:55:41;;;;;;;2;1.8;;;;;;;;;;;;;
2021/01/15 08:58:06;;;;;;;2.2;1.9;;;;;;;;;;;;;
2021/01/15 09:00:31;;;;;;;2.1;1.5;;;;;;;;;;;;;
2021/01/15 09:02:56;;;;;;;2.2;1.8;;;;;;;;;;;;;
2021/01/15 09:05:21;;;;;;;3.2;1.8;;;;;;;;;;;;;
2021/01/15 09:07:47;;;;;;;2.4;1.7;;;;;;;;;;;;;
2021/01/15 09:10:12;;;;;;;2.4;1.7;;;;;;;;;;;;;
2021/01/15 09:12:37;;;;;;;3.8;2;;;;;;;;;;;;;
2021/01/15 09:15:02;;;;;;;6.8;2.7;;;;;;;;;;;;;
2021/01/15 09:17:28;;;;;;;2.7;1.8;;;;;;;;;;;;;
2021/01/15 09:19:52;;;;;;;4.5;3;;;;;;;;;;;;;
2021/01/15 09:22:18;;;;;;;4.1;2.3;;;;;;;;;;;;;
2021/01/15 09:24:43;;;;;;;5.9;2.8;;;;;;;;;;;;;
2021/01/15 09:27:10;;;;;;;3.1;2.3;;;;;;;;;;;;;
2021/01/15 09:29:35;;;;;;;4.6;3;;;;;;;;;;;;;
2021/01/15 09:31:59;;;;;;;4.6;2.8;;;;;;;;;;;;;
2021/01/15 09:34:25;;;;;;;5.4;2.9;;;;;;;;;;;;;
2021/01/15 09:36:50;;;;;;;7.1;2.5;;;;;;;;;;;;;
2021/01/15 09:39:15;;;;;;;3;2.6;;;;;;;;;;;;;
2021/01/15 09:41:40;;;;;;;4.3;2.7;;;;;;;;;;;;;
2021/01/15 09:44:05;;;;;;;3.2;2.6;;;;;;;;;;;;;
2021/01/15 09:46:32;;;;;;;1.6;1.4;;;;;;;;;;;;;
2021/01/15 09:48:57;;;;;;;3.5;2.7;;;;;;;;;;;;;
2021/01/15 09:51:22;;;;;;;2.5;2.3;;;;;;;;;;;;;
2021/01/15 09:53:47;;;;;;;6;2.5;;;;;;;;;;;;;
2021/01/15 09:56:13;;;;;;;5.5;2.4;;;;;;;;;;;;;
2021/01/15 09:58:39;;;;;;;3;2.4;;;;;;;;;;;;;
2021/01/15 10:01:06;;;;;;;3.7;2.6;;;;;;;;;;;;;
2021/01/15 10:03:30;;;;;;;3.8;1.9;;;;;;;;;;;;;
2021/01/15 10:05:56;;;;;;;4.2;2.5;;;;;;;;;;;;;
2021/01/15 10:08:21;;;;;;;3.6;2.3;;;;;;;;;;;;;
2021/01/15 10:10:46;;;;;;;6.3;2.8;;;;;;;;;;;;;
2021/01/15 10:13:11;;;;;;;7.4;2.9;;;;;;;;;;;;;
2021/01/15 10:15:37;;;;;;;3.9;2.3;;;;;;;;;;;;;
2021/01/15 10:18:02;;;;;;;4.9;2.8;;;;;;;;;;;;;
2021/01/15 10:20:27;;;;;;;3.3;2.4;;;;;;;;;;;;;
2021/01/15 10:22:52;;;;;;;2.7;2.1;;;;;;;;;;;;;
2021/01/15 10:25:17;;;;;;;2.5;2.1;;;;;;;;;;;;;
2021/01/15 10:27:43;;;;;;;4;2.4;;;;;;;;;;;;;
2021/01/15 10:30:08;;;;;;;3.5;2.3;;;;;;;;;;;;;
2021/01/15 10:32:34;;;;;;;4.5;2.7;;;;;;;;;;;;;
2021/01/15 10:34:59;;;;;;;3.9;2.4;;;;;;;;;;;;;
2021/01/15 10:37:24;;;;;;;4.6;2.3;;;;;;;;;;;;;
2021/01/15 10:39:49;;;;;;;4.4;2.1;;;;;;;;;;;;;
2021/01/15 10:42:14;;;;;;;3.8;2.1;;;;;;;;;;;;;
2021/01/15 10:44:39;;;;;;;4.9;2.5;;;;;;;;;;;;;
2021/01/15 10:47:04;;;;;;;5;2.6;;;;;;;;;;;;;
2021/01/15 10:49:29;;;;;;;3.5;2.7;;;;;;;;;;;;;
2021/01/15 10:51:55;;;;;;;4.3;2.9;;;;;;;;;;;;;
2021/01/15 10:54:20;;;;;;;6.1;2;;;;;;;;;;;;;
2021/01/15 10:56:45;;;;;;;4.8;3.3;;;;;;;;;;;;;
2021/01/15 10:59:10;;;;;;;3.5;2.6;;;;;;;;;;;;;
2021/01/15 11:01:35;;;;;;;5.3;2.6;;;;;;;;;;;;;
2021/01/15 11:04:00;;;;;;;4.1;2.5;;;;;;;;;;;;;
2021/01/15 11:06:26;;;;;;;4.3;2.8;;;;;;;;;;;;;
2021/01/15 11:08:51;;;;;;;2.9;1.9;;;;;;;;;;;;;
2021/01/15 11:11:16;;;;;;;3.4;1.5;;;;;;;;;;;;;
2021/01/15 11:13:41;;;;;;;5.4;3.1;;;;;;;;;;;;;
2021/01/15 11:16:06;;;;;;;4.3;2.7;;;;;;;;;;;;;
2021/01/15 11:18:31;;;;;;;2.4;2.2;;;;;;;;;;;;;
2021/01/15 11:20:56;;;;;;;6.5;3.3;;;;;;;;;;;;;
2021/01/15 11:23:22;;;;;;;3.8;1.9;;;;;;;;;;;;;
2021/01/15 11:25:47;;;;;;;3.2;2.6;;;;;;;;;;;;;
2021/01/15 11:28:12;;;;;;;4.6;3;;;;;;;;;;;;;
2021/01/15 11:30:37;;;;;;;2.9;2.5;;;;;;;;;;;;;
2021/01/15 11:33:03;;;;;;;3.2;2.3;;;;;;;;;;;;;
2021/01/15 11:35:27;;;;;;;4;2.3;;;;;;;;;;;;;
2021/01/15 11:37:57;;;;;;;5.1;3.4;;;;;;;;;;;;;
2021/01/15 11:40:18;;;;;;;2.7;2.2;;;;;;;;;;;;;
2021/01/15 11:42:43;;;;;;;4.4;2.5;;;;;;;;;;;;;
2021/01/15 11:45:08;;;;;;;6.8;3.7;;;;;;;;;;;;;
2021/01/15 11:47:33;;;;;;;3;2;;;;;;;;;;;;;
2021/01/15 11:49:58;;;;;;;4.8;3.1;;;;;;;;;;;;;
2021/01/15 11:52:23;;;;;;;4.3;3.2;;;;;;;;;;;;;
2021/01/15 11:54:49;;;;;;;3.3;1.8;;;;;;;;;;;;;
2021/01/15 11:57:14;;;;;;;6.6;3.1;;;;;;;;;;;;;
2021/01/15 11:59:39;;;;;;;6.4;2;;;;;;;;;;;;;
2021/01/15 12:02:04;;;;;;;4.7;2.4;;;;;;;;;;;;;
2021/01/15 12:04:29;;;;;;;3.4;2.6;;;;;;;;;;;;;
2021/01/15 12:06:54;;;;;;;2.6;2.1;;;;;;;;;;;;;
2021/01/15 12:09:20;;;;;;;3.9;2.7;;;;;;;;;;;;;
2021/01/15 12:11:45;;;;;;;4.9;3.1;;;;;;;;;;;;;
2021/01/15 12:14:12;;;;;;;4.5;3;;;;;;;;;;;;;
2021/01/15 12:16:36;;;;;;;5.5;2.9;;;;;;;;;;;;;
2021/01/15 12:19:01;;;;;;;6.8;3.3;;;;;;;;;;;;;
2021/01/15 12:21:26;;;;;;;4.1;2.2;;;;;;;;;;;;;
2021/01/15 12:23:53;;;;;;;5.3;3.4;;;;;;;;;;;;;
2021/01/15 12:26:18;;;;;;;2.9;2.2;;;;;;;;;;;;;
2021/01/15 12:28:44;;;;;;;2;1.7;;;;;;;;;;;;;
2021/01/15 12:31:09;;;;;;;5.1;3;;;;;;;;;;;;;
2021/01/15 12:33:34;;;;;;;2.8;2.1;;;;;;;;;;;;;
2021/01/15 12:35:59;;;;;;;3.3;2.2;;;;;;;;;;;;;
2021/01/15 12:38:24;;;;;;;2.9;2.1;;;;;;;;;;;;;
2021/01/15 12:40:49;;;;;;;5.5;2.5;;;;;;;;;;;;;
2021/01/15 12:43:15;;;;;;;2.8;2.3;;;;;;;;;;;;;
2021/01/15 12:45:40;;;;;;;3.4;2.3;;;;;;;;;;;;;
2021/01/15 12:48:07;;;;;;;2.7;1.9;;;;;;;;;;;;;
2021/01/15 12:50:32;;;;;;;4.9;2.4;;;;;;;;;;;;;
2021/01/15 12:53:04;;;;;;;4.9;2.9;;;;;;;;;;;;;
2021/01/15 12:55:31;;;;;;;4.6;1.9;;;;;;;;;;;;;
2021/01/15 12:57:55;;;;;;;3.7;2.4;;;;;;;;;;;;;
2021/01/15 13:00:35;;;;;;;5.4;2.6;;;;;;;;;;;;;
2021/01/15 13:02:56;;;;;;;3.1;2.2;;;;;;;;;;;;;
2021/01/15 13:05:46;;;;;;;2.6;2.4;;;;;;;;;;;;;
2021/01/15 13:07:47;;;;;;;6.2;2.9;;;;;;;;;;;;;
2021/01/15 13:10:12;;;;;;;2.1;1.8;;;;;;;;;;;;;
2021/01/15 13:12:38;;;;;;;3.1;2.4;;;;;;;;;;;;;
2021/01/15 13:15:03;;;;;;;3;2;;;;;;;;;;;;;
2021/01/15 13:17:30;;;;;;;4.6;2.4;;;;;;;;;;;;;
2021/01/15 13:19:55;;;;;;;4.2;2;;;;;;;;;;;;;
2021/01/15 13:22:22;;;;;;;4.7;2.3;;;;;;;;;;;;;
2021/01/15 13:24:47;;;;;;;4;2.7;;;;;;;;;;;;;
2021/01/15 13:27:13;;;;;;;3.4;2.5;;;;;;;;;;;;;
2021/01/15 13:29:39;;;;;;;5.1;2;;;;;;;;;;;;;
2021/01/15 13:32:04;;;;;;;2.8;2.1;;;;;;;;;;;;;
2021/01/15 13:34:29;;;;;;;2.6;1.5;;;;;;;;;;;;;
2021/01/15 13:36:55;;;;;;;2.6;1.8;;;;;;;;;;;;;
2021/01/15 13:39:20;;;;;;;3.5;2.1;;;;;;;;;;;;;
2021/01/15 13:41:48;;;;;;;4.4;2.7;;;;;;;;;;;;;
2021/01/15 13:44:12;;;;;;;6.9;2.6;;;;;;;;;;;;;
2021/01/15 13:46:37;;;;;;;1.7;1.4;;;;;;;;;;;;;
2021/01/15 13:49:02;;;;;;;2.9;1.8;;;;;;;;;;;;;
2021/01/15 13:51:29;;;;;;;1.9;1.5;;;;;;;;;;;;;
2021/01/15 13:53:54;;;;;;;3;2;;;;;;;;;;;;;
2021/01/15 13:56:20;;;;;;;2.1;1.6;;;;;;;;;;;;;
2021/01/15 13:58:45;;;;;;;2.9;2.1;;;;;;;;;;;;;
2021/01/15 14:01:11;;;;;;;2.8;1.9;;;;;;;;;;;;;
2021/01/15 14:03:36;;;;;;;1.7;1.3;;;;;;;;;;;;;
2021/01/15 14:06:02;;;;;;;1.7;1.4;;;;;;;;;;;;;
2021/01/15 14:08:27;;;;;;;2.6;1.9;;;;;;;;;;;;;
2021/01/15 14:10:56;;;;;;;3;1.8;;;;;;;;;;;;;
2021/01/15 14:13:20;;;;;;;1.7;1.3;;;;;;;;;;;;;
2021/01/15 14:15:45;;;;;;;2.6;1.7;;;;;;;;;;;;;
2021/01/15 14:18:10;;;;;;;1.6;1.4;;;;;;;;;;;;;
2021/01/15 14:20:37;;;;;;;3.8;1.3;;;;;;;;;;;;;
2021/01/15 14:23:03;;;;;;;2.8;1.9;;;;;;;;;;;;;
2021/01/15 14:25:27;;;;;;;3.4;1.8;;;;;;;;;;;;;
2021/01/15 14:27:52;;;;;;;3.1;1.8;;;;;;;;;;;;;
2021/01/15 14:30:20;;;;;;;3.1;2.1;;;;;;;;;;;;;
2021/01/15 14:32:46;;;;;;;4.8;2.4;;;;;;;;;;;;;
2021/01/15 14:35:11;;;;;;;1.6;1.5;;;;;;;;;;;;;
2021/01/15 14:37:36;;;;;;;1.5;1.4;;;;;;;;;;;;;
2021/01/15 14:40:02;;;;;;;1.3;1.2;;;;;;;;;;;;;
2021/01/15 14:42:54;;;;;;;2.5;1.9;;;;;;;;;;;;;
2021/01/15 14:44:53;;;;;;;1.8;1.6;;;;;;;;;;;;;
2021/01/15 14:47:18;;;;;;;2.8;2;;;;;;;;;;;;;
2021/01/15 14:49:43;;;;;;;3.1;2.3;;;;;;;;;;;;;
2021/01/15 14:52:12;;;;;;;3.2;2.4;;;;;;;;;;;;;
2021/01/15 14:54:36;;;;;;;3.1;1.7;;;;;;;;;;;;;
2021/01/15 14:57:01;;;;;;;1.8;1.6;;;;;;;;;;;;;
2021/01/15 14:59:26;;;;;;;2;1.6;;;;;;;;;;;;;
2021/01/15 15:01:53;;;;;;;3;1.8;;;;;;;;;;;;;
2021/01/15 15:04:17;;;;;;;5.3;3.9;;;;;;;;;;;;;
2021/01/15 15:06:44;;;;;;;2.9;2.2;;;;;;;;;;;;;
2021/01/15 15:09:08;;;;;;;3;2.5;;;;;;;;;;;;;
2021/01/15 15:11:34;;;;;;;3.4;1.8;;;;;;;;;;;;;
2021/01/15 15:14:00;;;;;;;14;6.3;;;;;;;;;;;;;
2021/01/15 15:16:26;;;;;;;12.9;5.8;;;;;;;;;;;;;
2021/01/15 15:18:51;;;;;;;52.2;23.4;;;;;;;;;;;;;
2021/01/15 15:21:17;;;;;;;26;13;;;;;;;;;;;;;
2021/01/15 15:23:42;;;;;;;12.8;7.2;;;;;;;;;;;;;
2021/01/15 15:26:08;;;;;;;3.5;3.2;;;;;;;;;;;;;
2021/01/15 15:28:33;;;;;;;8.6;3.1;;;;;;;;;;;;;
2021/01/15 15:31:00;;;;;;;90.4;37.9;;;;;;;;;;;;;
2021/01/15 15:33:25;;;;;;;72.7;31.4;;;;;;;;;;;;;
2021/01/15 15:35:51;;;;;;;24.5;10.4;;;;;;;;;;;;;
2021/01/15 15:38:16;;;;;;;8.7;4.3;;;;;;;;;;;;;
2021/01/15 15:40:42;;;;;;;5.2;3.1;;;;;;;;;;;;;
2021/01/15 15:43:08;;;;;;;6.9;3.7;;;;;;;;;;;;;
2021/01/15 15:45:33;;;;;;;8.4;2.7;;;;;;;;;;;;;
2021/01/15 15:47:58;;;;;;;2.4;2;;;;;;;;;;;;;
2021/01/15 15:50:24;;;;;;;3.3;2.3;;;;;;;;;;;;;
2021/01/15 15:52:49;;;;;;;3.9;2.4;;;;;;;;;;;;;
2021/01/15 15:55:16;;;;;;;4.3;2.7;;;;;;;;;;;;;
2021/01/15 15:57:41;;;;;;;3.9;2.2;;;;;;;;;;;;;
2021/01/15 16:00:07;;;;;;;3.5;2.8;;;;;;;;;;;;;
2021/01/15 16:02:31;;;;;;;5.3;3.1;;;;;;;;;;;;;
2021/01/15 16:04:57;;;;;;;2.8;1.8;;;;;;;;;;;;;
2021/01/15 16:07:22;;;;;;;4.7;2.9;;;;;;;;;;;;;
2021/01/15 16:09:49;;;;;;;4.1;3;;;;;;;;;;;;;
2021/01/15 16:12:14;;;;;;;3.9;2.3;;;;;;;;;;;;;
2021/01/15 16:14:43;;;;;;;5.2;2.9;;;;;;;;;;;;;
2021/01/15 16:17:08;;;;;;;3.7;2.6;;;;;;;;;;;;;
2021/01/15 16:19:33;;;;;;;3.8;2.4;;;;;;;;;;;;;
2021/01/15 16:21:58;;;;;;;4.7;3.1;;;;;;;;;;;;;
2021/01/15 16:24:24;;;;;;;2.8;2.4;;;;;;;;;;;;;
2021/01/15 16:26:51;;;;;;;5.7;3.3;;;;;;;;;;;;;
2021/01/15 16:29:14;;;;;;;5.6;3.9;;;;;;;;;;;;;
2021/01/15 16:31:39;;;;;;;8.1;3.6;;;;;;;;;;;;;
2021/01/15 16:34:05;;;;;;;5;3.1;;;;;;;;;;;;;
2021/01/15 16:36:30;;;;;;;8.3;5;;;;;;;;;;;;;
2021/01/15 16:38:57;;;;;;;8.8;4.5;;;;;;;;;;;;;
2021/01/15 16:41:22;;;;;;;8.8;5;;;;;;;;;;;;;
2021/01/15 16:43:48;;;;;;;4.9;3.5;;;;;;;;;;;;;
2021/01/15 16:46:13;;;;;;;9.3;4.5;;;;;;;;;;;;;
2021/01/15 16:48:39;;;;;;;5.3;3.2;;;;;;;;;;;;;
2021/01/15 16:51:04;;;;;;;3.4;2.9;;;;;;;;;;;;;
2021/01/15 16:53:30;;;;;;;6.2;3.3;;;;;;;;;;;;;
2021/01/15 16:55:55;;;;;;;4.4;3.1;;;;;;;;;;;;;
2021/01/15 16:58:22;;;;;;;6.9;4.5;;;;;;;;;;;;;
2021/01/15 17:00:47;;;;;;;5.6;3.3;;;;;;;;;;;;;
2021/01/15 17:03:13;;;;;;;7;3.7;;;;;;;;;;;;;
2021/01/15 17:05:38;;;;;;;4.4;3.6;;;;;;;;;;;;;
2021/01/15 17:08:03;;;;;;;6.8;3.6;;;;;;;;;;;;;
2021/01/15 17:10:28;;;;;;;6.9;4;;;;;;;;;;;;;
2021/01/15 17:12:54;;;;;;;7.1;3.5;;;;;;;;;;;;;
2021/01/15 17:15:19;;;;;;;6.4;4.6;;;;;;;;;;;;;
2021/01/15 17:17:44;;;;;;;6.4;4.2;;;;;;;;;;;;;
2021/01/15 17:20:09;;;;;;;4.9;3.4;;;;;;;;;;;;;
2021/01/15 17:22:34;;;;;;;5.8;3.1;;;;;;;;;;;;;
2021/01/15 17:24:59;;;;;;;6.4;2.9;;;;;;;;;;;;;
2021/01/15 17:27:24;;;;;;;5.8;3.6;;;;;;;;;;;;;
2021/01/15 17:29:51;;;;;;;5.4;3;;;;;;;;;;;;;
2021/01/15 17:32:16;;;;;;;3.1;2.3;;;;;;;;;;;;;
2021/01/15 17:34:42;;;;;;;9.7;6.4;;;;;;;;;;;;;
2021/01/15 17:37:07;;;;;;;10.9;5.2;;;;;;;;;;;;;
2021/01/15 17:39:33;;;;;;;8.6;4.5;;;;;;;;;;;;;
2021/01/15 17:41:58;;;;;;;8.6;4;;;;;;;;;;;;;
2021/01/15 17:44:25;;;;;;;7;4.3;;;;;;;;;;;;;
2021/01/15 17:46:49;;;;;;;6;4.4;;;;;;;;;;;;;
2021/01/15 17:49:14;;;;;;;7.8;3.8;;;;;;;;;;;;;
2021/01/15 17:51:39;;;;;;;5.4;3.2;;;;;;;;;;;;;
2021/01/15 17:54:04;;;;;;;3.8;3;;;;;;;;;;;;;
2021/01/15 17:56:30;;;;;;;8.2;3;;;;;;;;;;;;;
2021/01/15 17:58:55;;;;;;;14.4;3;;;;;;;;;;;;;
2021/01/15 18:01:20;;;;;;;4.6;2.9;;;;;;;;;;;;;
2021/01/15 18:03:46;;;;;;;3.2;2.5;;;;;;;;;;;;;
2021/01/15 18:06:11;;;;;;;4.9;2.3;;;;;;;;;;;;;
2021/01/15 18:08:36;;;;;;;4.8;2.8;;;;;;;;;;;;;
2021/01/15 18:11:01;;;;;;;2.2;2;;;;;;;;;;;;;
2021/01/15 18:13:26;;;;;;;3;2.6;;;;;;;;;;;;;
2021/01/15 18:15:51;;;;;;;3.4;2.7;;;;;;;;;;;;;
2021/01/15 18:18:17;;;;;;;4.5;3;;;;;;;;;;;;;
2021/01/15 18:20:42;;;;;;;5.1;3.3;;;;;;;;;;;;;
2021/01/15 18:23:09;;;;;;;10.3;5.7;;;;;;;;;;;;;
2021/01/15 18:25:33;;;;;;;7.6;4.7;;;;;;;;;;;;;
2021/01/15 18:28:00;;;;;;;4.9;3.6;;;;;;;;;;;;;
2021/01/15 18:30:25;;;;;;;9.8;4.5;;;;;;;;;;;;;
2021/01/15 18:32:50;;;;;;;6.1;3;;;;;;;;;;;;;
2021/01/15 18:35:15;;;;;;;9.2;4.9;;;;;;;;;;;;;
2021/01/15 18:37:40;;;;;;;4.7;3.1;;;;;;;;;;;;;
2021/01/15 18:40:06;;;;;;;7.5;3.6;;;;;;;;;;;;;
2021/01/15 18:42:30;;;;;;;8.4;5.9;;;;;;;;;;;;;
2021/01/15 18:44:56;;;;;;;9.9;4.3;;;;;;;;;;;;;
2021/01/15 18:47:21;;;;;;;6.4;4.1;;;;;;;;;;;;;
2021/01/15 18:49:47;;;;;;;6.6;3.8;;;;;;;;;;;;;
2021/01/15 18:52:12;;;;;;;5.5;4;;;;;;;;;;;;;
2021/01/15 18:54:38;;;;;;;9.2;5.1;;;;;;;;;;;;;
2021/01/15 18:57:03;;;;;;;10.7;5.3;;;;;;;;;;;;;
2021/01/15 18:59:28;;;;;;;20.5;8.4;;;;;;;;;;;;;
2021/01/15 19:01:54;;;;;;;7.6;4.3;;;;;;;;;;;;;
2021/01/15 19:04:18;;;;;;;8.9;3.6;;;;;;;;;;;;;
2021/01/15 19:06:43;;;;;;;4.7;3.7;;;;;;;;;;;;;
2021/01/15 19:09:08;;;;;;;7.5;4.1;;;;;;;;;;;;;
2021/01/15 19:11:34;;;;;;;5.4;3.5;;;;;;;;;;;;;
2021/01/15 19:13:59;;;;;;;8.2;3.6;;;;;;;;;;;;;
2021/01/15 19:16:24;;;;;;;6.5;2.8;;;;;;;;;;;;;
2021/01/15 19:18:51;;;;;;;6.9;3.6;;;;;;;;;;;;;
2021/01/15 19:21:16;;;;;;;6.2;3.6;;;;;;;;;;;;;
2021/01/15 19:23:41;;;;;;;4.4;3.6;;;;;;;;;;;;;
2021/01/15 19:26:06;;;;;;;7.5;3.4;;;;;;;;;;;;;
2021/01/15 19:28:32;;;;;;;4.8;3.5;;;;;;;;;;;;;
2021/01/15 19:30:57;;;;;;;6.2;3.5;;;;;;;;;;;;;
2021/01/15 19:33:23;;;;;;;6.3;3.1;;;;;;;;;;;;;
2021/01/15 19:35:48;;;;;;;5.4;3;;;;;;;;;;;;;
2021/01/15 19:38:13;;;;;;;4;2.9;;;;;;;;;;;;;
2021/01/15 19:40:38;;;;;;;5.3;3;;;;;;;;;;;;;
2021/01/15 19:43:04;;;;;;;6.7;3.3;;;;;;;;;;;;;
2021/01/15 19:45:29;;;;;;;5.4;3.8;;;;;;;;;;;;;
2021/01/15 19:47:54;;;;;;;5.1;3.6;;;;;;;;;;;;;
2021/01/15 19:50:19;;;;;;;6.1;3.5;;;;;;;;;;;;;
2021/01/15 19:52:45;;;;;;;18.2;9.9;;;;;;;;;;;;;
2021/01/15 19:55:11;;;;;;;9.5;6.7;;;;;;;;;;;;;
2021/01/15 19:57:36;;;;;;;15.5;6.3;;;;;;;;;;;;;
2021/01/15 20:00:01;;;;;;;4.9;3.5;;;;;;;;;;;;;
2021/01/15 20:02:26;;;;;;;5.2;3.5;;;;;;;;;;;;;
2021/01/15 20:04:52;;;;;;;4.2;2.7;;;;;;;;;;;;;
2021/01/15 20:07:17;;;;;;;4.4;3.6;;;;;;;;;;;;;
2021/01/15 20:09:43;;;;;;;6.4;3.7;;;;;;;;;;;;;
2021/01/15 20:12:09;;;;;;;9.6;4.7;;;;;;;;;;;;;
2021/01/15 20:14:35;;;;;;;7.2;4.7;;;;;;;;;;;;;
2021/01/15 20:17:00;;;;;;;7.4;5.3;;;;;;;;;;;;;
2021/01/15 20:19:26;;;;;;;11.1;6;;;;;;;;;;;;;
2021/01/15 20:21:51;;;;;;;11.8;6.7;;;;;;;;;;;;;
2021/01/15 20:24:18;;;;;;;10.3;6.5;;;;;;;;;;;;;
2021/01/15 20:26:43;;;;;;;11.9;5.2;;;;;;;;;;;;;
2021/01/15 20:29:08;;;;;;;6.2;3.8;;;;;;;;;;;;;
2021/01/15 20:31:33;;;;;;;10.4;5.5;;;;;;;;;;;;;
2021/01/15 20:33:58;;;;;;;12.1;5.1;;;;;;;;;;;;;